Time;durP1;ratioP1;P1;durP2;ratioP2;P2;SDS_P1;SDS_P2;PMS_P1;PMS_P2;Temp;Humidity;BMP_temperature;BMP_pressure;BME280_temperature;BME280_humidity;BME280_pressure;Samples;Min_cycle;Max_cycle;Signal;HPM_P1;HPM_P2
2024/02/09 00:00:55;;;;;;;84.50;77.80;;;;;;;;;;5084612;28;20207;-84
2024/02/09 00:03:22;;;;;;;81.30;73.82;;;;;;;;;;5084085;28;20462;-83
2024/02/09 00:05:50;;;;;;;84.60;77.68;;;;;;;;;;5084377;28;20249;-83
2024/02/09 00:08:18;;;;;;;83.20;75.90;;;;;;;;;;5082970;28;20226;-83
2024/02/09 00:10:47;;;;;;;91.18;79.38;;;;;;;;;;5084444;28;20643;-83
2024/02/09 00:13:14;;;;;;;81.83;74.63;;;;;;;;;;5082985;28;20211;-83
2024/02/09 00:15:42;;;;;;;78.63;72.03;;;;;;;;;;5082973;28;20470;-82
2024/02/09 00:18:10;;;;;;;79.78;73.50;;;;;;;;;;5100996;28;20235;-84
2024/02/09 00:20:37;;;;;;;79.27;72.50;;;;;;;;;;5098107;28;20215;-83
2024/02/09 00:23:04;;;;;;;84.33;76.70;;;;;;;;;;5084400;28;20854;-82
2024/02/09 00:25:33;;;;;;;81.33;74.70;;;;;;;;;;5083631;28;20522;-84
2024/02/09 00:28:00;;;;;;;88.60;80.33;;;;;;;;;;5092317;28;20473;-83
2024/02/09 00:30:27;;;;;;;86.33;79.00;;;;;;;;;;5084343;28;20541;-84
2024/02/09 00:32:54;;;;;;;82.30;75.30;;;;;;;;;;5083430;28;20970;-83
2024/02/09 00:35:23;;;;;;;86.03;77.73;;;;;;;;;;5083612;28;20442;-83
2024/02/09 00:37:55;;;;;;;96.20;86.23;;;;;;;;;;5089845;28;21084;-84
2024/02/09 00:40:22;;;;;;;91.80;84.17;;;;;;;;;;5104348;28;20453;-84
2024/02/09 00:42:51;;;;;;;88.23;79.63;;;;;;;;;;5100740;28;21046;-84
2024/02/09 00:45:18;;;;;;;89.25;81.63;;;;;;;;;;5082869;28;20517;-83
2024/02/09 00:47:47;;;;;;;88.33;80.77;;;;;;;;;;5089537;28;20222;-83
2024/02/09 00:50:16;;;;;;;90.63;81.80;;;;;;;;;;5095334;28;20454;-84
2024/02/09 00:52:44;;;;;;;89.50;81.23;;;;;;;;;;5083963;28;20546;-85
2024/02/09 00:55:12;;;;;;;93.80;76.68;;;;;;;;;;5083567;28;20449;-84
2024/02/09 00:57:40;;;;;;;86.18;77.45;;;;;;;;;;5082679;28;20319;-83
2024/02/09 01:00:10;;;;;;;82.47;74.67;;;;;;;;;;5083146;28;20212;-84
2024/02/09 01:02:37;;;;;;;85.65;76.75;;;;;;;;;;5083085;28;20529;-84
2024/02/09 01:05:04;;;;;;;79.57;70.88;;;;;;;;;;5083466;28;20207;-83
2024/02/09 01:07:31;;;;;;;78.50;71.70;;;;;;;;;;5082181;28;20228;-84
2024/02/09 01:09:58;;;;;;;77.07;69.80;;;;;;;;;;5083307;28;20461;-84
2024/02/09 02:45:48;;;;;;;58.20;54.07;;;;;;;;;;5093503;28;20909;-85
2024/02/09 03:04:47;;;;;;;55.83;52.43;;;;;;;;;;5093018;28;20834;-84
2024/02/09 03:07:14;;;;;;;58.13;54.20;;;;;;;;;;5105406;28;20449;-85
2024/02/09 03:09:42;;;;;;;57.83;54.13;;;;;;;;;;5106226;28;20466;-85
2024/02/09 03:12:13;;;;;;;54.63;51.20;;;;;;;;;;5102607;28;20480;-84
2024/02/09 03:14:40;;;;;;;56.53;52.57;;;;;;;;;;5085693;28;20438;-83
2024/02/09 03:17:07;;;;;;;54.70;51.10;;;;;;;;;;5101305;28;20440;-85
2024/02/09 03:19:35;;;;;;;54.37;50.20;;;;;;;;;;5105877;28;20464;-83
2024/02/09 03:22:02;;;;;;;52.50;49.00;;;;;;;;;;5105627;28;20445;-84
2024/02/09 03:24:29;;;;;;;55.70;52.03;;;;;;;;;;5106088;28;20489;-85
2024/02/09 03:26:58;;;;;;;54.43;50.83;;;;;;;;;;5105467;28;20449;-84
2024/02/09 03:29:30;;;;;;;53.07;48.90;;;;;;;;;;5105862;28;20420;-84
2024/02/09 03:31:57;;;;;;;57.13;52.93;;;;;;;;;;5105681;28;20455;-84
2024/02/09 03:34:25;;;;;;;56.00;52.03;;;;;;;;;;5105034;28;20456;-84
2024/02/09 03:36:54;;;;;;;55.87;51.93;;;;;;;;;;5104644;28;20463;-84
2024/02/09 03:39:22;;;;;;;56.50;52.60;;;;;;;;;;5103902;28;20481;-84
2024/02/09 03:41:49;;;;;;;58.03;54.40;;;;;;;;;;5104476;28;20905;-85
2024/02/09 03:44:20;;;;;;;56.03;52.50;;;;;;;;;;5105100;28;20445;-84
2024/02/09 03:46:47;;;;;;;56.20;52.20;;;;;;;;;;5103930;28;20762;-83
2024/02/09 03:49:14;;;;;;;57.00;52.10;;;;;;;;;;5104884;28;20439;-84
2024/02/09 03:51:41;;;;;;;56.17;52.73;;;;;;;;;;5104560;28;20453;-84
2024/02/09 03:54:08;;;;;;;56.03;52.23;;;;;;;;;;5104955;28;20452;-84
2024/02/09 03:56:35;;;;;;;59.47;55.37;;;;;;;;;;5100896;28;20454;-84
2024/02/09 03:59:01;;;;;;;56.90;52.93;;;;;;;;;;5100205;28;20980;-83
2024/02/09 04:01:29;;;;;;;56.37;53.07;;;;;;;;;;5104465;28;20438;-84
2024/02/09 04:03:56;;;;;;;54.40;51.00;;;;;;;;;;5103821;28;20470;-84
2024/02/09 04:06:24;;;;;;;56.40;52.30;;;;;;;;;;5104420;28;20537;-85
2024/02/09 04:08:51;;;;;;;58.53;54.47;;;;;;;;;;5104544;28;20492;-83
2024/02/09 04:11:22;;;;;;;61.40;56.50;;;;;;;;;;5104904;28;20427;-84
2024/02/09 04:13:50;;;;;;;63.97;60.00;;;;;;;;;;5104535;28;20482;-83
2024/02/09 04:16:19;;;;;;;61.10;57.00;;;;;;;;;;5096914;28;20543;-84
2024/02/09 04:18:47;;;;;;;57.43;53.87;;;;;;;;;;5088719;28;20468;-83
2024/02/09 04:21:15;;;;;;;62.20;57.20;;;;;;;;;;5083804;28;20499;-84
2024/02/09 04:23:42;;;;;;;58.87;54.67;;;;;;;;;;5093429;28;20813;-84
2024/02/09 04:26:09;;;;;;;58.30;54.77;;;;;;;;;;5102163;28;20459;-84
2024/02/09 04:28:36;;;;;;;60.50;56.70;;;;;;;;;;5088630;28;20466;-83
2024/02/09 04:31:04;;;;;;;59.63;55.60;;;;;;;;;;5088244;28;20448;-84
2024/02/09 04:33:31;;;;;;;63.43;59.03;;;;;;;;;;5103877;28;20505;-83
2024/02/09 04:35:59;;;;;;;61.27;57.17;;;;;;;;;;5103419;28;20453;-84
2024/02/09 04:38:26;;;;;;;63.03;58.53;;;;;;;;;;5103262;28;20495;-84
2024/02/09 04:40:55;;;;;;;60.60;56.33;;;;;;;;;;5103975;28;20445;-84
2024/02/09 04:43:23;;;;;;;62.90;58.20;;;;;;;;;;5103498;28;20436;-84
2024/02/09 04:45:51;;;;;;;59.60;55.13;;;;;;;;;;5103292;28;20456;-84
2024/02/09 04:48:18;;;;;;;60.57;56.27;;;;;;;;;;5097501;28;20440;-84
2024/02/09 04:50:46;;;;;;;59.97;55.77;;;;;;;;;;5102204;28;20448;-84
2024/02/09 04:53:15;;;;;;;55.30;51.70;;;;;;;;;;5104195;28;20433;-84
2024/02/09 04:55:42;;;;;;;58.90;54.70;;;;;;;;;;5103459;28;20441;-84
2024/02/09 04:58:09;;;;;;;58.60;54.20;;;;;;;;;;5084219;28;20464;-83
2024/02/09 05:00:36;;;;;;;59.07;54.70;;;;;;;;;;5099000;28;20449;-84
2024/02/09 05:03:04;;;;;;;57.67;53.33;;;;;;;;;;5102599;28;20450;-84
2024/02/09 05:05:32;;;;;;;59.07;55.10;;;;;;;;;;5103144;28;20441;-84
2024/02/09 05:08:00;;;;;;;59.20;55.37;;;;;;;;;;5102867;28;20465;-83
2024/02/09 05:10:28;;;;;;;61.47;57.20;;;;;;;;;;5102966;28;20478;-84
2024/02/09 05:13:02;;;;;;;60.07;56.17;;;;;;;;;;5102744;28;20472;-84
2024/02/09 05:15:29;;;;;;;64.67;60.07;;;;;;;;;;5087592;28;20429;-84
2024/02/09 05:17:56;;;;;;;60.93;56.90;;;;;;;;;;5082094;28;20580;-84
2024/02/09 05:20:24;;;;;;;63.33;59.27;;;;;;;;;;5082490;28;20438;-84
2024/02/09 05:22:51;;;;;;;62.73;58.23;;;;;;;;;;5082195;28;20454;-83
2024/02/09 05:25:18;;;;;;;63.67;59.33;;;;;;;;;;5082721;28;20413;-84
2024/02/09 05:27:47;;;;;;;64.73;60.03;;;;;;;;;;5081912;28;20465;-84
2024/02/09 05:30:15;;;;;;;62.00;57.93;;;;;;;;;;5083240;28;20840;-84
2024/02/09 05:32:42;;;;;;;64.47;60.37;;;;;;;;;;5082576;28;20453;-83
2024/02/09 05:35:09;;;;;;;67.83;62.83;;;;;;;;;;5082293;28;20454;-83
2024/02/09 05:37:36;;;;;;;65.27;60.87;;;;;;;;;;5081521;28;20452;-83
2024/02/09 05:40:03;;;;;;;66.23;61.50;;;;;;;;;;5082343;28;20446;-83
2024/02/09 05:42:30;;;;;;;63.57;59.57;;;;;;;;;;5081722;28;20457;-83
2024/02/09 05:44:58;;;;;;;64.13;59.37;;;;;;;;;;5081600;28;20412;-82
2024/02/09 05:47:30;;;;;;;69.33;64.70;;;;;;;;;;5081297;28;20491;-84
2024/02/09 05:49:58;;;;;;;62.10;58.10;;;;;;;;;;5082764;28;20456;-83
2024/02/09 05:52:26;;;;;;;64.10;59.10;;;;;;;;;;5082239;28;20446;-84
2024/02/09 05:54:53;;;;;;;62.07;58.10;;;;;;;;;;5081728;28;20434;-84
2024/02/09 05:57:20;;;;;;;64.33;59.67;;;;;;;;;;5085521;28;21014;-84
2024/02/09 05:59:47;;;;;;;69.60;65.07;;;;;;;;;;5101070;28;20870;-84
2024/02/09 06:02:17;;;;;;;67.80;62.90;;;;;;;;;;5094263;28;20447;-83
2024/02/09 06:04:44;;;;;;;68.43;63.80;;;;;;;;;;5086480;28;20445;-84
2024/02/09 06:07:10;;;;;;;67.47;63.07;;;;;;;;;;5084830;28;20438;-83
2024/02/09 06:09:38;;;;;;;66.53;62.17;;;;;;;;;;5085059;28;20831;-83
2024/02/09 06:12:05;;;;;;;64.13;59.97;;;;;;;;;;5102880;28;20509;-83
2024/02/09 06:14:32;;;;;;;65.40;61.00;;;;;;;;;;5106250;28;20435;-83
2024/02/09 06:16:59;;;;;;;64.07;60.07;;;;;;;;;;5105134;28;20509;-84
2024/02/09 06:19:27;;;;;;;62.20;58.10;;;;;;;;;;5105392;28;20488;-83
2024/02/09 06:21:56;;;;;;;63.40;59.13;;;;;;;;;;5105959;28;20506;-83
2024/02/09 06:24:24;;;;;;;64.07;60.00;;;;;;;;;;5095209;28;20518;-83
2024/02/09 06:26:52;;;;;;;67.43;62.93;;;;;;;;;;5086333;28;20496;-83
2024/02/09 06:29:19;;;;;;;61.70;57.73;;;;;;;;;;5090986;28;20478;-82
2024/02/09 06:31:46;;;;;;;62.73;58.53;;;;;;;;;;5105426;28;20449;-82
2024/02/09 06:34:13;;;;;;;62.13;58.33;;;;;;;;;;5105717;28;20448;-83
2024/02/09 06:36:43;;;;;;;65.30;61.03;;;;;;;;;;5104498;28;20997;-83
2024/02/09 06:39:11;;;;;;;61.30;57.50;;;;;;;;;;5105253;28;20539;-82
2024/02/09 06:41:38;;;;;;;59.90;56.20;;;;;;;;;;5105927;28;20499;-83
2024/02/09 06:44:05;;;;;;;60.50;57.10;;;;;;;;;;5104668;28;20456;-83
2024/02/09 06:46:32;;;;;;;60.43;56.53;;;;;;;;;;5104954;28;20456;-83
2024/02/09 06:49:00;;;;;;;58.60;54.87;;;;;;;;;;5102804;28;20534;-83
2024/02/09 06:51:27;;;;;;;59.53;55.63;;;;;;;;;;5085113;28;20516;-83
2024/02/09 06:53:56;;;;;;;60.10;56.37;;;;;;;;;;5084742;28;20482;-83
2024/02/09 06:56:23;;;;;;;60.83;56.90;;;;;;;;;;5093990;28;20529;-83
2024/02/09 06:58:52;;;;;;;57.90;54.50;;;;;;;;;;5103788;28;20508;-82
2024/02/09 07:01:19;;;;;;;62.20;58.50;;;;;;;;;;5097346;28;20473;-83
2024/02/09 07:03:49;;;;;;;62.53;58.57;;;;;;;;;;5122319;28;20432;-87
2024/02/09 07:06:16;;;;;;;61.23;57.33;;;;;;;;;;5121877;28;20460;-82
2024/02/09 07:08:51;;;;;;;64.30;60.53;;;;;;;;;;5112675;28;20487;-82
2024/02/09 07:11:19;;;;;;;64.53;60.33;;;;;;;;;;5102260;28;20432;-82
2024/02/09 07:13:47;;;;;;;63.27;59.13;;;;;;;;;;5102241;28;20480;-80
2024/02/09 07:16:14;;;;;;;63.40;59.40;;;;;;;;;;5102371;28;20453;-82
2024/02/09 07:18:42;;;;;;;63.97;60.27;;;;;;;;;;5102027;28;20519;-81
2024/02/09 07:21:09;;;;;;;63.00;59.40;;;;;;;;;;5102784;28;20934;-82
2024/02/09 07:23:36;;;;;;;59.30;55.70;;;;;;;;;;5102240;28;20494;-82
2024/02/09 07:26:03;;;;;;;59.93;56.43;;;;;;;;;;5101529;28;20455;-82
2024/02/09 07:28:32;;;;;;;63.50;59.53;;;;;;;;;;5101868;28;20469;-82
2024/02/09 07:30:59;;;;;;;63.43;59.83;;;;;;;;;;5103038;28;20453;-82
2024/02/09 07:33:26;;;;;;;60.27;56.83;;;;;;;;;;5102841;28;20437;-81
2024/02/09 07:35:53;;;;;;;62.37;58.50;;;;;;;;;;5101853;28;20471;-81
2024/02/09 07:44:28;;;;;;;60.60;56.57;;;;;;;;;;5094068;28;20814;-81
2024/02/09 07:46:55;;;;;;;58.57;55.27;;;;;;;;;;5101030;28;20464;-80
2024/02/09 07:49:24;;;;;;;58.27;54.60;;;;;;;;;;5102136;28;20831;-83
2024/02/09 07:51:51;;;;;;;60.17;56.70;;;;;;;;;;5101562;28;20499;-81
2024/02/09 08:09:38;;;;;;;54.90;51.50;;;;;;;;;;5092709;28;20406;-81
2024/02/09 08:12:05;;;;;;;50.43;47.43;;;;;;;;;;5092297;28;20479;-80
2024/02/09 08:14:34;;;;;;;54.30;51.27;;;;;;;;;;5080800;28;20472;-80
2024/02/09 08:17:01;;;;;;;54.93;51.83;;;;;;;;;;5080662;28;20453;-82
2024/02/09 08:19:28;;;;;;;54.73;51.53;;;;;;;;;;5081415;28;20460;-81
2024/02/09 08:21:55;;;;;;;54.33;51.10;;;;;;;;;;5081932;28;20424;-81
2024/02/09 08:24:22;;;;;;;53.97;50.93;;;;;;;;;;5080792;28;20495;-82
2024/02/09 08:26:50;;;;;;;51.03;48.13;;;;;;;;;;5080629;28;20461;-81
2024/02/09 08:29:17;;;;;;;53.77;50.67;;;;;;;;;;5080129;28;20440;-81
2024/02/09 08:31:45;;;;;;;54.43;51.50;;;;;;;;;;5081748;28;20978;-81
2024/02/09 08:34:13;;;;;;;51.80;48.90;;;;;;;;;;5097030;28;20517;-82
2024/02/09 08:36:40;;;;;;;50.33;47.37;;;;;;;;;;5081221;28;20545;-82
2024/02/09 08:39:07;;;;;;;51.00;48.10;;;;;;;;;;5082037;28;20503;-82
2024/02/09 08:41:33;;;;;;;51.17;48.13;;;;;;;;;;5081814;28;20513;-80
2024/02/09 08:44:02;;;;;;;49.60;46.90;;;;;;;;;;5081218;28;21223;-82
2024/02/09 08:46:29;;;;;;;50.67;47.97;;;;;;;;;;5079033;28;20479;-83
2024/02/09 08:48:56;;;;;;;48.30;45.70;;;;;;;;;;5079411;28;20470;-82
2024/02/09 08:51:23;;;;;;;50.63;47.83;;;;;;;;;;5080536;28;20495;-83
2024/02/09 08:53:50;;;;;;;49.40;46.60;;;;;;;;;;5079570;28;20430;-82
2024/02/09 08:56:17;;;;;;;48.60;46.00;;;;;;;;;;5079228;28;20428;-84
2024/02/09 08:58:46;;;;;;;50.77;48.10;;;;;;;;;;5079458;28;20474;-82
2024/02/09 09:01:15;;;;;;;48.20;45.40;;;;;;;;;;5085311;28;20458;-83
2024/02/09 09:03:42;;;;;;;48.00;45.10;;;;;;;;;;5079948;28;20446;-83
2024/02/09 09:06:09;;;;;;;50.80;48.10;;;;;;;;;;5080009;28;20480;-83
2024/02/09 09:08:36;;;;;;;48.13;45.53;;;;;;;;;;5080323;28;20927;-80
2024/02/09 09:11:05;;;;;;;47.77;45.17;;;;;;;;;;5080553;28;20441;-80
2024/02/09 09:13:32;;;;;;;48.47;45.87;;;;;;;;;;5080333;28;20934;-82
2024/02/09 09:15:59;;;;;;;49.03;46.33;;;;;;;;;;5080298;28;20412;-82
2024/02/09 09:18:28;;;;;;;45.63;43.23;;;;;;;;;;5080424;28;20527;-80
2024/02/09 09:20:55;;;;;;;48.53;45.87;;;;;;;;;;5080736;28;20486;-83
2024/02/09 09:23:22;;;;;;;47.93;45.43;;;;;;;;;;5082465;28;20458;-82
2024/02/09 09:25:49;;;;;;;46.63;43.93;;;;;;;;;;5081430;28;20852;-81
2024/02/09 09:28:17;;;;;;;48.57;46.07;;;;;;;;;;5080741;28;20469;-80
2024/02/09 09:30:45;;;;;;;46.47;43.87;;;;;;;;;;5081872;28;20474;-80
2024/02/09 09:33:12;;;;;;;46.40;44.00;;;;;;;;;;5089231;28;20514;-81
2024/02/09 09:35:40;;;;;;;42.73;40.43;;;;;;;;;;5088529;28;20462;-81
2024/02/09 09:38:10;;;;;;;44.50;42.17;;;;;;;;;;5080492;28;20473;-81
2024/02/09 09:40:37;;;;;;;44.40;41.90;;;;;;;;;;5081185;28;20572;-81
2024/02/09 09:43:05;;;;;;;46.07;43.57;;;;;;;;;;5080366;28;20499;-81
2024/02/09 09:45:34;;;;;;;46.30;44.00;;;;;;;;;;5082858;28;20500;-81
2024/02/09 09:48:02;;;;;;;47.53;45.17;;;;;;;;;;5072857;28;20884;-87
2024/02/09 09:50:29;;;;;;;46.20;43.70;;;;;;;;;;5073808;28;20445;-88
2024/02/09 09:52:57;;;;;;;47.33;44.93;;;;;;;;;;5073911;28;20492;-88
2024/02/09 09:55:27;;;;;;;48.43;45.93;;;;;;;;;;5077129;28;20449;-87
2024/02/09 09:57:54;;;;;;;47.63;44.73;;;;;;;;;;5075942;28;20821;-87
2024/02/09 10:00:21;;;;;;;47.90;45.20;;;;;;;;;;5075171;28;20477;-81
2024/02/09 10:02:49;;;;;;;48.97;46.47;;;;;;;;;;5076094;28;20469;-80
2024/02/09 10:05:16;;;;;;;49.53;47.00;;;;;;;;;;5097313;28;21000;-80
2024/02/09 10:07:43;;;;;;;46.10;43.40;;;;;;;;;;5095571;28;20453;-79
2024/02/09 10:10:13;;;;;;;46.90;44.40;;;;;;;;;;5093485;28;20453;-89
2024/02/09 10:12:40;;;;;;;45.40;42.83;;;;;;;;;;5074228;28;20456;-86
2024/02/09 10:15:08;;;;;;;46.57;43.87;;;;;;;;;;5087096;28;20450;-86
2024/02/09 10:17:36;;;;;;;40.67;38.07;;;;;;;;;;5078761;28;20559;-88
2024/02/09 10:20:04;;;;;;;43.20;40.90;;;;;;;;;;5075806;28;20927;-87
2024/02/09 10:22:31;;;;;;;45.07;42.60;;;;;;;;;;5074947;28;20461;-86
2024/02/09 10:24:58;;;;;;;44.10;41.63;;;;;;;;;;5075262;28;20832;-88
2024/02/09 10:27:27;;;;;;;44.50;42.20;;;;;;;;;;5076939;28;20500;-87
2024/02/09 10:29:57;;;;;;;47.40;44.97;;;;;;;;;;5076901;28;20446;-87
2024/02/09 10:32:26;;;;;;;46.77;44.00;;;;;;;;;;5076932;28;20877;-88
2024/02/09 10:34:54;;;;;;;44.33;41.70;;;;;;;;;;5076568;28;20449;-85
2024/02/09 10:37:21;;;;;;;44.30;42.00;;;;;;;;;;5075797;28;20473;-86
2024/02/09 10:39:48;;;;;;;44.17;41.77;;;;;;;;;;5076793;28;20481;-79
2024/02/09 10:42:17;;;;;;;43.07;40.57;;;;;;;;;;5077154;28;20480;-87
2024/02/09 10:44:46;;;;;;;44.67;42.13;;;;;;;;;;5074948;28;21159;-87
2024/02/09 10:47:14;;;;;;;40.13;37.43;;;;;;;;;;5076505;28;20466;-87
2024/02/09 10:49:43;;;;;;;41.53;39.03;;;;;;;;;;5076646;28;20930;-78
2024/02/09 10:52:11;;;;;;;42.23;39.63;;;;;;;;;;5076831;28;20467;-78
2024/02/09 10:54:39;;;;;;;42.87;40.40;;;;;;;;;;5074730;28;20449;-80
2024/02/09 10:57:07;;;;;;;42.10;39.47;;;;;;;;;;5074441;28;20754;-78
2024/02/09 10:59:36;;;;;;;41.90;39.23;;;;;;;;;;5074595;28;20844;-78
2024/02/09 11:02:05;;;;;;;40.37;38.17;;;;;;;;;;5074183;28;20420;-78
2024/02/09 11:04:33;;;;;;;36.80;34.83;;;;;;;;;;5075556;28;20449;-79
2024/02/09 11:07:01;;;;;;;36.23;34.23;;;;;;;;;;5072686;28;20441;-79
2024/02/09 11:09:28;;;;;;;35.50;33.60;;;;;;;;;;5074360;28;20433;-79
2024/02/09 11:11:55;;;;;;;35.10;33.03;;;;;;;;;;5073654;28;20426;-79
2024/02/09 11:14:29;;;;;;;33.23;31.43;;;;;;;;;;5073592;28;20964;-80
2024/02/09 11:16:56;;;;;;;30.27;28.77;;;;;;;;;;5093588;28;20494;-79
2024/02/09 11:19:25;;;;;;;28.07;26.67;;;;;;;;;;5074085;28;20872;-79
2024/02/09 11:21:57;;;;;;;26.17;24.63;;;;;;;;;;5073432;28;20432;-79
2024/02/09 11:24:25;;;;;;;26.43;24.73;;;;;;;;;;5085554;28;21005;-78
2024/02/09 11:26:52;;;;;;;26.47;25.10;;;;;;;;;;5079609;28;20450;-77
2024/02/09 11:29:20;;;;;;;26.80;25.27;;;;;;;;;;5073021;28;20440;-76
2024/02/09 11:31:48;;;;;;;26.80;25.30;;;;;;;;;;5072599;28;20951;-77
2024/02/09 11:34:17;;;;;;;26.73;25.43;;;;;;;;;;5079237;28;20449;-79
2024/02/09 11:36:46;;;;;;;27.17;25.70;;;;;;;;;;5093623;28;20526;-77
2024/02/09 11:39:13;;;;;;;24.17;22.97;;;;;;;;;;5093620;28;20502;-78
2024/02/09 11:41:40;;;;;;;26.20;24.90;;;;;;;;;;5092105;28;20489;-80
2024/02/09 11:50:23;;;;;;;26.40;24.90;;;;;;;;;;5090344;28;21263;-79
2024/02/09 11:52:53;;;;;;;22.97;21.77;;;;;;;;;;5092865;28;20477;-78
2024/02/09 11:55:20;;;;;;;23.17;22.07;;;;;;;;;;5093012;28;20487;-78
2024/02/09 11:57:48;;;;;;;22.83;21.53;;;;;;;;;;5092783;28;20461;-77
2024/02/09 12:09:27;;;;;;;21.00;20.00;;;;;;;;;;5076093;28;20393;-79
2024/02/09 12:11:54;;;;;;;22.20;21.13;;;;;;;;;;5079230;28;21022;-79
2024/02/09 12:14:21;;;;;;;22.90;21.37;;;;;;;;;;5080490;28;20446;-77
2024/02/09 12:16:48;;;;;;;20.60;19.67;;;;;;;;;;5079207;28;20500;-78
2024/02/09 12:19:15;;;;;;;19.57;18.60;;;;;;;;;;5079678;28;20561;-79
2024/02/09 12:33:58;;;;;;;19.40;18.60;;;;;;;;;;5076445;28;20440;-80
2024/02/09 12:36:25;;;;;;;19.80;18.70;;;;;;;;;;5078581;28;20496;-79
2024/02/09 12:38:55;;;;;;;19.80;18.80;;;;;;;;;;5076538;28;20452;-80
2024/02/09 12:41:22;;;;;;;18.57;17.67;;;;;;;;;;5077699;28;20484;-80
2024/02/09 12:43:56;;;;;;;18.87;18.00;;;;;;;;;;5077211;28;20449;-79
2024/02/09 12:46:24;;;;;;;18.00;17.10;;;;;;;;;;5084341;28;20466;-79
2024/02/09 12:48:51;;;;;;;17.87;17.07;;;;;;;;;;5074366;28;20481;-78
2024/02/09 12:51:20;;;;;;;19.70;18.60;;;;;;;;;;5097098;28;20457;-80
2024/02/09 12:53:47;;;;;;;17.93;17.07;;;;;;;;;;5095832;28;20460;-79
2024/02/09 12:56:14;;;;;;;18.50;17.40;;;;;;;;;;5095610;28;20453;-80
2024/02/09 12:58:42;;;;;;;17.83;16.90;;;;;;;;;;5095835;28;20526;-80
2024/02/09 13:01:08;;;;;;;19.30;18.20;;;;;;;;;;5096378;28;20472;-78
2024/02/09 13:03:35;;;;;;;18.27;17.17;;;;;;;;;;5098160;28;20437;-79
2024/02/09 13:06:05;;;;;;;18.57;17.60;;;;;;;;;;5097277;28;20510;-80
2024/02/09 13:08:33;;;;;;;18.00;17.00;;;;;;;;;;5097920;28;20495;-80
2024/02/09 13:11:00;;;;;;;20.70;19.60;;;;;;;;;;5097498;28;20800;-80
2024/02/09 13:13:29;;;;;;;17.73;16.63;;;;;;;;;;5097253;28;20463;-78
2024/02/09 13:15:56;;;;;;;18.70;17.60;;;;;;;;;;5097368;28;20452;-80
2024/02/09 13:18:23;;;;;;;19.93;18.93;;;;;;;;;;5096919;28;20487;-78
2024/02/09 13:20:50;;;;;;;19.10;18.07;;;;;;;;;;5098032;28;20518;-79
2024/02/09 13:23:21;;;;;;;18.97;17.73;;;;;;;;;;5098174;28;20928;-80
2024/02/09 13:25:50;;;;;;;18.73;17.80;;;;;;;;;;5098304;28;20482;-79
2024/02/09 13:28:18;;;;;;;20.10;18.93;;;;;;;;;;5097800;28;20519;-80
2024/02/09 13:30:46;;;;;;;19.80;18.60;;;;;;;;;;5097236;28;20441;-78
2024/02/09 13:33:13;;;;;;;20.40;18.80;;;;;;;;;;5097557;28;20457;-80
2024/02/09 13:35:40;;;;;;;19.00;18.10;;;;;;;;;;5097598;28;20453;-80
2024/02/09 13:38:07;;;;;;;19.97;18.97;;;;;;;;;;5095913;28;20525;-79
2024/02/09 13:40:34;;;;;;;20.27;19.00;;;;;;;;;;5097749;28;20553;-78
2024/02/09 13:43:03;;;;;;;18.97;17.87;;;;;;;;;;5097600;28;20453;-79
2024/02/09 13:45:30;;;;;;;19.30;18.10;;;;;;;;;;5096685;28;20453;-78
2024/02/09 13:47:59;;;;;;;19.37;18.27;;;;;;;;;;5095768;28;20469;-80
2024/02/09 13:50:26;;;;;;;18.83;17.87;;;;;;;;;;5096779;28;20440;-79
2024/02/09 13:52:54;;;;;;;18.40;17.50;;;;;;;;;;5096752;28;20464;-78
2024/02/09 13:55:22;;;;;;;18.20;17.30;;;;;;;;;;5096126;28;20456;-79
2024/02/09 13:57:50;;;;;;;17.60;16.70;;;;;;;;;;5089189;28;20485;-87
2024/02/09 14:00:19;;;;;;;20.03;18.80;;;;;;;;;;5078247;28;20453;-82
2024/02/09 14:02:46;;;;;;;19.40;18.07;;;;;;;;;;5090068;28;20450;-83
2024/02/09 14:05:13;;;;;;;18.17;17.37;;;;;;;;;;5084275;28;20499;-86
2024/02/09 14:07:41;;;;;;;18.40;17.50;;;;;;;;;;5086192;28;20503;-81
2024/02/09 14:10:08;;;;;;;18.43;17.53;;;;;;;;;;5099549;28;20453;-88
2024/02/09 14:12:35;;;;;;;17.70;16.80;;;;;;;;;;5098661;28;20834;-82
2024/02/09 14:15:02;;;;;;;18.10;17.03;;;;;;;;;;5088599;28;20453;-80
2024/02/09 14:17:31;;;;;;;19.90;18.67;;;;;;;;;;5074494;28;20504;-82
2024/02/09 14:19:58;;;;;;;18.20;17.30;;;;;;;;;;5075777;28;20441;-82
2024/02/09 14:22:25;;;;;;;18.40;17.50;;;;;;;;;;5076108;28;20527;-80
2024/02/09 14:24:53;;;;;;;18.67;17.67;;;;;;;;;;5079351;28;20449;-82
2024/02/09 14:27:20;;;;;;;16.43;15.73;;;;;;;;;;5078619;28;20453;-80
2024/02/09 14:29:50;;;;;;;17.57;16.77;;;;;;;;;;5079556;28;20503;-80
2024/02/09 14:32:17;;;;;;;17.63;16.83;;;;;;;;;;5080861;28;20445;-85
2024/02/09 14:34:45;;;;;;;17.97;16.97;;;;;;;;;;5098497;28;20445;-89
2024/02/09 14:37:13;;;;;;;17.60;16.60;;;;;;;;;;5113522;28;20800;-83
2024/02/09 14:39:42;;;;;;;18.30;17.40;;;;;;;;;;5125321;28;20463;-89
2024/02/09 14:42:11;;;;;;;17.63;16.70;;;;;;;;;;5115248;28;20475;-78
2024/02/09 14:44:38;;;;;;;18.77;17.63;;;;;;;;;;5104046;28;20534;-77
2024/02/09 14:47:06;;;;;;;18.30;17.33;;;;;;;;;;5093354;28;20946;-77
2024/02/09 14:49:34;;;;;;;18.00;17.07;;;;;;;;;;5094054;28;20455;-77
2024/02/09 14:52:03;;;;;;;17.97;17.07;;;;;;;;;;5094037;28;20444;-77
2024/02/09 14:54:30;;;;;;;18.03;17.13;;;;;;;;;;5093996;28;20436;-77
2024/02/09 14:56:57;;;;;;;18.57;17.23;;;;;;;;;;5093185;28;20445;-78
2024/02/09 14:59:25;;;;;;;18.80;17.30;;;;;;;;;;5093808;28;20479;-76
2024/02/09 15:01:54;;;;;;;18.73;17.73;;;;;;;;;;5093575;28;20499;-77
2024/02/09 15:04:21;;;;;;;17.40;16.57;;;;;;;;;;5094126;28;20449;-79
2024/02/09 15:06:49;;;;;;;18.37;17.47;;;;;;;;;;5098650;28;20433;-82
2024/02/09 15:09:17;;;;;;;18.50;17.50;;;;;;;;;;5102780;28;20483;-81
2024/02/09 15:11:45;;;;;;;18.60;17.60;;;;;;;;;;5103629;28;20448;-80
2024/02/09 15:14:12;;;;;;;18.27;17.13;;;;;;;;;;5101306;28;20448;-81
2024/02/09 15:16:41;;;;;;;19.17;18.17;;;;;;;;;;5101092;28;20443;-81
2024/02/09 15:19:11;;;;;;;18.73;17.73;;;;;;;;;;5102059;28;20480;-80
2024/02/09 15:21:39;;;;;;;17.97;17.17;;;;;;;;;;5101243;28;20475;-80
2024/02/09 15:24:07;;;;;;;18.23;17.00;;;;;;;;;;5102456;28;20441;-83
2024/02/09 15:26:36;;;;;;;17.83;16.93;;;;;;;;;;5103152;28;20449;-81
2024/02/09 15:29:03;;;;;;;18.50;17.57;;;;;;;;;;5102864;28;20496;-84
2024/02/09 15:31:30;;;;;;;18.00;17.10;;;;;;;;;;5098909;28;20463;-83
2024/02/09 15:33:57;;;;;;;18.87;17.87;;;;;;;;;;5098414;28;20859;-83
2024/02/09 15:36:24;;;;;;;17.97;17.17;;;;;;;;;;5098256;28;21002;-84
2024/02/09 15:38:52;;;;;;;19.10;17.90;;;;;;;;;;5098589;28;20467;-82
2024/02/09 15:41:19;;;;;;;18.50;17.57;;;;;;;;;;5098029;28;20499;-82
2024/02/09 15:43:48;;;;;;;19.67;18.60;;;;;;;;;;5098721;28;20436;-84
2024/02/09 15:46:15;;;;;;;18.63;17.73;;;;;;;;;;5097208;28;20480;-81
2024/02/09 15:48:44;;;;;;;18.87;17.97;;;;;;;;;;5097924;28;20473;-81
2024/02/09 15:51:11;;;;;;;18.90;18.00;;;;;;;;;;5098895;28;20457;-81
2024/02/09 15:53:37;;;;;;;20.50;19.20;;;;;;;;;;5098246;28;20445;-81
2024/02/09 15:56:05;;;;;;;20.03;18.80;;;;;;;;;;5097311;28;20470;-83
2024/02/09 15:58:32;;;;;;;19.77;18.67;;;;;;;;;;5097071;28;20473;-83
2024/02/09 16:01:05;;;;;;;19.40;18.50;;;;;;;;;;5087229;28;20454;-88
2024/02/09 16:03:32;;;;;;;19.57;18.67;;;;;;;;;;5073814;28;20445;-76
2024/02/09 16:05:59;;;;;;;19.63;18.63;;;;;;;;;;5071744;28;20451;-82
2024/02/09 16:08:26;;;;;;;20.27;19.17;;;;;;;;;;5077435;28;20515;-83
2024/02/09 16:10:53;;;;;;;19.40;18.40;;;;;;;;;;5074991;28;20464;-76
2024/02/09 16:13:20;;;;;;;19.40;18.43;;;;;;;;;;5073028;28;20934;-77
2024/02/09 16:15:48;;;;;;;20.27;18.83;;;;;;;;;;5073981;28;20855;-77
2024/02/09 16:18:16;;;;;;;21.00;19.90;;;;;;;;;;5074909;28;20493;-77
2024/02/09 16:20:43;;;;;;;20.50;19.40;;;;;;;;;;5071836;28;20446;-77
2024/02/09 16:23:09;;;;;;;20.50;19.30;;;;;;;;;;5071514;28;20543;-76
2024/02/09 16:25:36;;;;;;;21.10;20.03;;;;;;;;;;5071756;28;20461;-77
2024/02/09 16:28:03;;;;;;;21.60;20.40;;;;;;;;;;5074190;28;20981;-80
2024/02/09 16:30:32;;;;;;;22.13;20.73;;;;;;;;;;5084624;28;21010;-81
2024/02/09 16:32:59;;;;;;;20.07;19.17;;;;;;;;;;5084367;28;20420;-82
2024/02/09 16:35:27;;;;;;;20.60;19.60;;;;;;;;;;5084080;28;20453;-81
2024/02/09 16:37:54;;;;;;;20.40;19.40;;;;;;;;;;5082761;28;20525;-81
2024/02/09 16:40:22;;;;;;;21.27;20.27;;;;;;;;;;5084053;28;20480;-81
2024/02/09 16:42:49;;;;;;;21.33;20.13;;;;;;;;;;5082427;28;20469;-80
2024/02/09 16:45:17;;;;;;;21.30;20.00;;;;;;;;;;5083821;28;20457;-81
2024/02/09 16:47:45;;;;;;;20.40;19.30;;;;;;;;;;5082598;28;20465;-83
2024/02/09 16:50:12;;;;;;;22.13;20.80;;;;;;;;;;5081912;28;20445;-82
2024/02/09 16:52:40;;;;;;;22.50;21.20;;;;;;;;;;5081471;28;20433;-82
2024/02/09 16:55:08;;;;;;;21.93;20.73;;;;;;;;;;5092556;28;20871;-83
2024/02/09 16:57:38;;;;;;;21.83;20.37;;;;;;;;;;5100765;28;20461;-84